sensor_id;sensor_type;location;lat;lon;timestamp;temperature;humidity
17331;DHT22;8783;52.448;4.638;2024-02-23T00:01:36;8.00;99.90
17331;DHT22;8783;52.448;4.638;2024-02-23T00:04:02;8.00;99.90
17331;DHT22;8783;52.448;4.638;2024-02-23T00:06:28;7.90;99.90
17331;DHT22;8783;52.448;4.638;2024-02-23T00:08:54;7.90;99.90
17331;DHT22;8783;52.448;4.638;2024-02-23T00:11:21;7.90;99.90
17331;DHT22;8783;52.448;4.638;2024-02-23T00:13:46;7.90;99.90
17331;DHT22;8783;52.448;4.638;2024-02-23T00:16:12;7.90;99.90
17331;DHT22;8783;52.448;4.638;2024-02-23T00:18:38;7.90;99.90
17331;DHT22;8783;52.448;4.638;2024-02-23T00:21:04;7.90;99.90
17331;DHT22;8783;52.448;4.638;2024-02-23T00:23:30;7.90;99.90
17331;DHT22;8783;52.448;4.638;2024-02-23T00:25:55;7.90;99.90
17331;DHT22;8783;52.448;4.638;2024-02-23T00:28:21;7.80;99.90
17331;DHT22;8783;52.448;4.638;2024-02-23T00:30:47;7.80;99.90
17331;DHT22;8783;52.448;4.638;2024-02-23T00:33:13;7.80;99.90
17331;DHT22;8783;52.448;4.638;2024-02-23T00:35:38;7.80;99.90
17331;DHT22;8783;52.448;4.638;2024-02-23T00:38:04;7.80;99.90
17331;DHT22;8783;52.448;4.638;2024-02-23T00:40:30;7.80;99.90
17331;DHT22;8783;52.448;4.638;2024-02-23T00:42:55;7.80;99.90
17331;DHT22;8783;52.448;4.638;2024-02-23T00:45:21;7.80;99.90
17331;DHT22;8783;52.448;4.638;2024-02-23T00:47:47;7.80;99.90
17331;DHT22;8783;52.448;4.638;2024-02-23T00:50:13;7.80;99.90
17331;DHT22;8783;52.448;4.638;2024-02-23T00:52:39;7.80;99.90
17331;DHT22;8783;52.448;4.638;2024-02-23T00:55:05;7.80;99.90
17331;DHT22;8783;52.448;4.638;2024-02-23T00:57:31;7.70;99.90
17331;DHT22;8783;52.448;4.638;2024-02-23T00:59:57;7.70;99.90
17331;DHT22;8783;52.448;4.638;2024-02-23T01:02:23;7.70;99.90
17331;DHT22;8783;52.448;4.638;2024-02-23T01:04:48;7.70;99.90
17331;DHT22;8783;52.448;4.638;2024-02-23T01:07:14;7.70;99.90
17331;DHT22;8783;52.448;4.638;2024-02-23T01:09:40;7.70;99.90
17331;DHT22;8783;52.448;4.638;2024-02-23T01:12:05;7.70;99.90
17331;DHT22;8783;52.448;4.638;2024-02-23T01:14:31;7.70;99.90
17331;DHT22;8783;52.448;4.638;2024-02-23T01:16:57;7.70;99.90
17331;DHT22;8783;52.448;4.638;2024-02-23T01:19:22;7.70;99.90
17331;DHT22;8783;52.448;4.638;2024-02-23T01:21:49;7.60;99.90
17331;DHT22;8783;52.448;4.638;2024-02-23T01:24:22;7.60;99.90
17331;DHT22;8783;52.448;4.638;2024-02-23T01:26:47;7.60;99.90
17331;DHT22;8783;52.448;4.638;2024-02-23T01:29:15;7.60;99.90
17331;DHT22;8783;52.448;4.638;2024-02-23T01:31:42;7.60;99.90
17331;DHT22;8783;52.448;4.638;2024-02-23T01:34:07;7.60;99.90
17331;DHT22;8783;52.448;4.638;2024-02-23T01:36:33;7.60;99.90
17331;DHT22;8783;52.448;4.638;2024-02-23T01:38:58;7.60;99.90
17331;DHT22;8783;52.448;4.638;2024-02-23T01:41:24;7.60;99.90
17331;DHT22;8783;52.448;4.638;2024-02-23T01:43:50;7.50;99.90
17331;DHT22;8783;52.448;4.638;2024-02-23T01:46:17;7.50;99.90
17331;DHT22;8783;52.448;4.638;2024-02-23T01:48:45;7.50;99.90
17331;DHT22;8783;52.448;4.638;2024-02-23T01:51:11;7.50;99.90
17331;DHT22;8783;52.448;4.638;2024-02-23T01:53:38;7.50;99.90
17331;DHT22;8783;52.448;4.638;2024-02-23T01:56:04;7.50;99.90
17331;DHT22;8783;52.448;4.638;2024-02-23T01:58:31;7.50;99.90
17331;DHT22;8783;52.448;4.638;2024-02-23T02:00:57;7.50;99.90
17331;DHT22;8783;52.448;4.638;2024-02-23T02:03:23;7.50;99.90
17331;DHT22;8783;52.448;4.638;2024-02-23T02:05:49;7.40;99.90
17331;DHT22;8783;52.448;4.638;2024-02-23T02:08:16;7.40;99.90
17331;DHT22;8783;52.448;4.638;2024-02-23T02:10:42;7.40;99.90
17331;DHT22;8783;52.448;4.638;2024-02-23T02:13:08;7.40;99.90
17331;DHT22;8783;52.448;4.638;2024-02-23T02:15:34;7.40;99.90
17331;DHT22;8783;52.448;4.638;2024-02-23T02:18:03;7.40;99.90
17331;DHT22;8783;52.448;4.638;2024-02-23T02:20:32;7.40;99.90
17331;DHT22;8783;52.448;4.638;2024-02-23T02:22:59;7.40;99.90
17331;DHT22;8783;52.448;4.638;2024-02-23T02:25:24;7.30;99.90
17331;DHT22;8783;52.448;4.638;2024-02-23T02:27:50;7.40;99.90
17331;DHT22;8783;52.448;4.638;2024-02-23T02:30:16;7.30;99.90
17331;DHT22;8783;52.448;4.638;2024-02-23T02:32:42;7.30;99.90
17331;DHT22;8783;52.448;4.638;2024-02-23T02:35:11;7.30;99.90
17331;DHT22;8783;52.448;4.638;2024-02-23T02:37:37;7.30;99.90
17331;DHT22;8783;52.448;4.638;2024-02-23T02:40:03;7.30;99.90
17331;DHT22;8783;52.448;4.638;2024-02-23T02:42:29;7.30;99.90
17331;DHT22;8783;52.448;4.638;2024-02-23T02:44:55;7.30;99.90
17331;DHT22;8783;52.448;4.638;2024-02-23T02:47:20;7.30;99.90
17331;DHT22;8783;52.448;4.638;2024-02-23T02:49:46;7.30;99.90
17331;DHT22;8783;52.448;4.638;2024-02-23T02:52:11;7.30;99.90
17331;DHT22;8783;52.448;4.638;2024-02-23T02:54:37;7.20;99.90
17331;DHT22;8783;52.448;4.638;2024-02-23T02:57:03;7.20;99.90
17331;DHT22;8783;52.448;4.638;2024-02-23T02:59:28;7.20;99.90
17331;DHT22;8783;52.448;4.638;2024-02-23T03:01:54;7.20;99.90
17331;DHT22;8783;52.448;4.638;2024-02-23T03:04:20;7.20;99.90
17331;DHT22;8783;52.448;4.638;2024-02-23T03:06:46;7.20;99.90
17331;DHT22;8783;52.448;4.638;2024-02-23T03:09:12;7.20;99.90
17331;DHT22;8783;52.448;4.638;2024-02-23T03:11:37;7.20;99.90
17331;DHT22;8783;52.448;4.638;2024-02-23T03:14:03;7.20;99.90
17331;DHT22;8783;52.448;4.638;2024-02-23T03:16:28;7.20;99.90
17331;DHT22;8783;52.448;4.638;2024-02-23T03:18:56;7.20;99.90
17331;DHT22;8783;52.448;4.638;2024-02-23T03:21:22;7.20;99.90
17331;DHT22;8783;52.448;4.638;2024-02-23T03:23:47;7.20;99.90
17331;DHT22;8783;52.448;4.638;2024-02-23T03:26:13;7.10;99.90
17331;DHT22;8783;52.448;4.638;2024-02-23T03:28:42;7.10;99.90
17331;DHT22;8783;52.448;4.638;2024-02-23T03:31:08;7.10;99.90
17331;DHT22;8783;52.448;4.638;2024-02-23T03:33:33;7.10;99.90
17331;DHT22;8783;52.448;4.638;2024-02-23T03:35:59;7.10;99.90
17331;DHT22;8783;52.448;4.638;2024-02-23T03:38:25;7.10;99.90
17331;DHT22;8783;52.448;4.638;2024-02-23T03:40:50;7.10;99.90
17331;DHT22;8783;52.448;4.638;2024-02-23T03:43:16;7.10;99.90
17331;DHT22;8783;52.448;4.638;2024-02-23T03:45:42;7.10;99.90
17331;DHT22;8783;52.448;4.638;2024-02-23T03:48:07;7.10;99.90
17331;DHT22;8783;52.448;4.638;2024-02-23T03:50:33;7.10;99.90
17331;DHT22;8783;52.448;4.638;2024-02-23T03:52:59;7.10;99.90
17331;DHT22;8783;52.448;4.638;2024-02-23T03:55:24;7.10;99.90
17331;DHT22;8783;52.448;4.638;2024-02-23T03:57:50;7.10;99.90
17331;DHT22;8783;52.448;4.638;2024-02-23T04:00:17;7.10;99.90
17331;DHT22;8783;52.448;4.638;2024-02-23T04:02:42;7.10;99.90
17331;DHT22;8783;52.448;4.638;2024-02-23T04:05:09;7.10;99.90
17331;DHT22;8783;52.448;4.638;2024-02-23T04:07:34;7.10;99.90
17331;DHT22;8783;52.448;4.638;2024-02-23T04:10:00;7.10;99.90
17331;DHT22;8783;52.448;4.638;2024-02-23T04:12:26;7.10;99.90
17331;DHT22;8783;52.448;4.638;2024-02-23T04:14:51;7.10;99.90
17331;DHT22;8783;52.448;4.638;2024-02-23T04:17:17;7.10;99.90
17331;DHT22;8783;52.448;4.638;2024-02-23T04:19:43;7.10;99.90
17331;DHT22;8783;52.448;4.638;2024-02-23T04:22:09;7.10;99.90
17331;DHT22;8783;52.448;4.638;2024-02-23T04:24:37;7.10;99.90
17331;DHT22;8783;52.448;4.638;2024-02-23T04:27:04;7.00;99.90
17331;DHT22;8783;52.448;4.638;2024-02-23T04:29:30;7.10;99.90
17331;DHT22;8783;52.448;4.638;2024-02-23T04:31:57;7.10;99.90
17331;DHT22;8783;52.448;4.638;2024-02-23T04:34:23;7.00;99.90
17331;DHT22;8783;52.448;4.638;2024-02-23T04:36:49;7.00;99.90
17331;DHT22;8783;52.448;4.638;2024-02-23T04:39:14;7.00;99.90
17331;DHT22;8783;52.448;4.638;2024-02-23T04:41:40;7.00;99.90
17331;DHT22;8783;52.448;4.638;2024-02-23T04:44:05;7.10;99.90
17331;DHT22;8783;52.448;4.638;2024-02-23T04:46:31;7.00;99.90
17331;DHT22;8783;52.448;4.638;2024-02-23T04:48:59;7.00;99.90
17331;DHT22;8783;52.448;4.638;2024-02-23T04:51:25;7.00;99.90
17331;DHT22;8783;52.448;4.638;2024-02-23T04:53:51;7.00;99.90
17331;DHT22;8783;52.448;4.638;2024-02-23T04:56:16;7.00;99.90
17331;DHT22;8783;52.448;4.638;2024-02-23T04:58:43;7.00;99.90
17331;DHT22;8783;52.448;4.638;2024-02-23T05:01:09;7.00;99.90
17331;DHT22;8783;52.448;4.638;2024-02-23T05:03:36;7.00;99.90
17331;DHT22;8783;52.448;4.638;2024-02-23T05:06:02;7.00;99.90
17331;DHT22;8783;52.448;4.638;2024-02-23T05:08:28;7.00;99.90
17331;DHT22;8783;52.448;4.638;2024-02-23T05:10:56;6.90;99.90
17331;DHT22;8783;52.448;4.638;2024-02-23T05:13:22;7.00;99.90
17331;DHT22;8783;52.448;4.638;2024-02-23T05:15:47;7.00;99.90
17331;DHT22;8783;52.448;4.638;2024-02-23T05:18:13;6.90;99.90
17331;DHT22;8783;52.448;4.638;2024-02-23T05:20:38;7.00;99.90
17331;DHT22;8783;52.448;4.638;2024-02-23T05:23:04;7.00;99.90
17331;DHT22;8783;52.448;4.638;2024-02-23T05:25:30;7.00;99.90
17331;DHT22;8783;52.448;4.638;2024-02-23T05:27:55;6.90;99.90
17331;DHT22;8783;52.448;4.638;2024-02-23T05:30:21;6.90;99.90
17331;DHT22;8783;52.448;4.638;2024-02-23T05:32:47;6.90;99.90
17331;DHT22;8783;52.448;4.638;2024-02-23T05:35:13;6.90;99.90
17331;DHT22;8783;52.448;4.638;2024-02-23T05:37:39;6.90;99.90
17331;DHT22;8783;52.448;4.638;2024-02-23T05:40:05;6.90;99.90
17331;DHT22;8783;52.448;4.638;2024-02-23T05:42:37;6.90;99.90
17331;DHT22;8783;52.448;4.638;2024-02-23T05:45:03;6.90;99.90
17331;DHT22;8783;52.448;4.638;2024-02-23T05:47:35;6.90;99.90
17331;DHT22;8783;52.448;4.638;2024-02-23T05:50:02;6.90;99.90
17331;DHT22;8783;52.448;4.638;2024-02-23T05:52:28;6.90;99.90
17331;DHT22;8783;52.448;4.638;2024-02-23T05:54:54;6.90;99.90
17331;DHT22;8783;52.448;4.638;2024-02-23T05:57:21;6.90;99.90
17331;DHT22;8783;52.448;4.638;2024-02-23T05:59:47;6.90;99.90
17331;DHT22;8783;52.448;4.638;2024-02-23T06:02:13;6.90;99.90
17331;DHT22;8783;52.448;4.638;2024-02-23T06:04:40;6.90;99.90
17331;DHT22;8783;52.448;4.638;2024-02-23T06:07:06;6.80;99.90
17331;DHT22;8783;52.448;4.638;2024-02-23T06:09:31;6.80;99.90
17331;DHT22;8783;52.448;4.638;2024-02-23T06:11:57;6.80;99.90
17331;DHT22;8783;52.448;4.638;2024-02-23T06:14:23;6.80;99.90
17331;DHT22;8783;52.448;4.638;2024-02-23T06:16:49;6.80;99.90
17331;DHT22;8783;52.448;4.638;2024-02-23T06:19:15;6.80;99.90
17331;DHT22;8783;52.448;4.638;2024-02-23T06:21:40;6.80;99.90
17331;DHT22;8783;52.448;4.638;2024-02-23T06:24:06;6.80;99.90
17331;DHT22;8783;52.448;4.638;2024-02-23T06:26:34;6.80;99.90
17331;DHT22;8783;52.448;4.638;2024-02-23T06:29:00;6.80;99.90
17331;DHT22;8783;52.448;4.638;2024-02-23T06:31:25;6.80;99.90
17331;DHT22;8783;52.448;4.638;2024-02-23T06:33:51;6.80;99.90
17331;DHT22;8783;52.448;4.638;2024-02-23T06:36:17;6.80;99.90
17331;DHT22;8783;52.448;4.638;2024-02-23T06:38:44;6.80;99.90
17331;DHT22;8783;52.448;4.638;2024-02-23T06:41:11;6.80;99.90
17331;DHT22;8783;52.448;4.638;2024-02-23T06:43:37;6.80;99.90
17331;DHT22;8783;52.448;4.638;2024-02-23T06:46:09;6.80;99.90
17331;DHT22;8783;52.448;4.638;2024-02-23T06:48:38;6.80;99.90
17331;DHT22;8783;52.448;4.638;2024-02-23T06:51:04;6.70;99.90
17331;DHT22;8783;52.448;4.638;2024-02-23T06:53:30;6.80;99.90
17331;DHT22;8783;52.448;4.638;2024-02-23T06:55:56;6.70;99.90
17331;DHT22;8783;52.448;4.638;2024-02-23T06:58:22;6.80;99.90
17331;DHT22;8783;52.448;4.638;2024-02-23T07:00:55;6.80;99.90
17331;DHT22;8783;52.448;4.638;2024-02-23T07:03:20;6.70;99.90
17331;DHT22;8783;52.448;4.638;2024-02-23T07:05:46;6.80;99.90
17331;DHT22;8783;52.448;4.638;2024-02-23T07:08:13;6.70;99.90
17331;DHT22;8783;52.448;4.638;2024-02-23T07:10:39;6.70;99.90
17331;DHT22;8783;52.448;4.638;2024-02-23T07:13:05;6.70;99.90
17331;DHT22;8783;52.448;4.638;2024-02-23T07:15:32;6.70;99.90
17331;DHT22;8783;52.448;4.638;2024-02-23T07:17:58;6.70;99.90
17331;DHT22;8783;52.448;4.638;2024-02-23T07:20:24;6.70;99.90
17331;DHT22;8783;52.448;4.638;2024-02-23T07:22:49;6.70;99.90
17331;DHT22;8783;52.448;4.638;2024-02-23T07:25:19;6.70;99.90
17331;DHT22;8783;52.448;4.638;2024-02-23T07:27:48;6.70;99.90
17331;DHT22;8783;52.448;4.638;2024-02-23T07:30:17;6.80;99.90
17331;DHT22;8783;52.448;4.638;2024-02-23T07:32:43;6.70;99.90
17331;DHT22;8783;52.448;4.638;2024-02-23T07:35:09;6.70;99.90
17331;DHT22;8783;52.448;4.638;2024-02-23T07:37:36;6.80;99.90
17331;DHT22;8783;52.448;4.638;2024-02-23T07:40:02;6.80;99.90
17331;DHT22;8783;52.448;4.638;2024-02-23T07:42:30;6.70;99.90
17331;DHT22;8783;52.448;4.638;2024-02-23T07:44:56;6.80;99.90
17331;DHT22;8783;52.448;4.638;2024-02-23T07:47:21;6.70;99.90
17331;DHT22;8783;52.448;4.638;2024-02-23T07:49:47;6.80;99.90
17331;DHT22;8783;52.448;4.638;2024-02-23T07:52:16;6.80;99.90
17331;DHT22;8783;52.448;4.638;2024-02-23T07:54:45;6.80;99.90
17331;DHT22;8783;52.448;4.638;2024-02-23T07:57:12;6.80;99.90
17331;DHT22;8783;52.448;4.638;2024-02-23T07:59:41;6.80;99.90
17331;DHT22;8783;52.448;4.638;2024-02-23T08:02:07;6.80;99.90
17331;DHT22;8783;52.448;4.638;2024-02-23T08:04:33;6.80;99.90
17331;DHT22;8783;52.448;4.638;2024-02-23T08:07:01;6.80;99.90
17331;DHT22;8783;52.448;4.638;2024-02-23T08:09:27;6.80;99.90
17331;DHT22;8783;52.448;4.638;2024-02-23T08:11:53;6.80;99.90
17331;DHT22;8783;52.448;4.638;2024-02-23T08:14:20;6.80;99.90
17331;DHT22;8783;52.448;4.638;2024-02-23T08:16:46;6.80;99.90
17331;DHT22;8783;52.448;4.638;2024-02-23T08:19:12;6.90;99.90
17331;DHT22;8783;52.448;4.638;2024-02-23T08:21:38;6.80;99.90
17331;DHT22;8783;52.448;4.638;2024-02-23T08:24:04;6.80;99.90
17331;DHT22;8783;52.448;4.638;2024-02-23T08:26:30;6.80;99.90
17331;DHT22;8783;52.448;4.638;2024-02-23T08:28:56;6.80;99.90
17331;DHT22;8783;52.448;4.638;2024-02-23T08:31:21;6.80;99.90
17331;DHT22;8783;52.448;4.638;2024-02-23T08:33:47;6.80;99.90
17331;DHT22;8783;52.448;4.638;2024-02-23T08:36:12;6.80;99.90
17331;DHT22;8783;52.448;4.638;2024-02-23T08:38:38;6.80;99.90
17331;DHT22;8783;52.448;4.638;2024-02-23T08:41:04;6.80;99.90
17331;DHT22;8783;52.448;4.638;2024-02-23T08:43:29;6.80;99.90
17331;DHT22;8783;52.448;4.638;2024-02-23T08:45:55;6.80;99.90
17331;DHT22;8783;52.448;4.638;2024-02-23T08:48:21;6.80;99.90
17331;DHT22;8783;52.448;4.638;2024-02-23T08:50:46;6.80;99.90
17331;DHT22;8783;52.448;4.638;2024-02-23T08:53:12;6.80;99.90
17331;DHT22;8783;52.448;4.638;2024-02-23T08:55:38;6.80;99.90
17331;DHT22;8783;52.448;4.638;2024-02-23T08:58:03;6.80;99.90
17331;DHT22;8783;52.448;4.638;2024-02-23T09:00:31;6.80;99.90
17331;DHT22;8783;52.448;4.638;2024-02-23T09:02:57;6.80;99.90
17331;DHT22;8783;52.448;4.638;2024-02-23T09:05:22;6.80;99.90
17331;DHT22;8783;52.448;4.638;2024-02-23T09:07:48;6.80;99.90
17331;DHT22;8783;52.448;4.638;2024-02-23T09:10:14;6.80;99.90
17331;DHT22;8783;52.448;4.638;2024-02-23T09:12:40;6.90;99.90
17331;DHT22;8783;52.448;4.638;2024-02-23T09:15:05;6.80;99.90
17331;DHT22;8783;52.448;4.638;2024-02-23T09:17:31;6.90;99.90
17331;DHT22;8783;52.448;4.638;2024-02-23T09:19:57;6.90;99.90
17331;DHT22;8783;52.448;4.638;2024-02-23T09:22:23;6.90;99.90
17331;DHT22;8783;52.448;4.638;2024-02-23T09:24:49;6.90;99.90
17331;DHT22;8783;52.448;4.638;2024-02-23T09:27:14;6.90;99.90
17331;DHT22;8783;52.448;4.638;2024-02-23T09:29:40;6.90;99.90
17331;DHT22;8783;52.448;4.638;2024-02-23T09:32:06;6.90;99.90
17331;DHT22;8783;52.448;4.638;2024-02-23T09:34:32;6.90;99.90
17331;DHT22;8783;52.448;4.638;2024-02-23T09:36:57;6.90;99.90
17331;DHT22;8783;52.448;4.638;2024-02-23T09:39:24;6.90;99.90
17331;DHT22;8783;52.448;4.638;2024-02-23T09:41:52;6.90;99.90
17331;DHT22;8783;52.448;4.638;2024-02-23T09:44:20;6.90;99.90
17331;DHT22;8783;52.448;4.638;2024-02-23T09:46:48;6.90;99.90
17331;DHT22;8783;52.448;4.638;2024-02-23T09:49:16;7.00;99.90
17331;DHT22;8783;52.448;4.638;2024-02-23T09:51:43;7.00;99.90
17331;DHT22;8783;52.448;4.638;2024-02-23T09:54:09;7.00;99.90
17331;DHT22;8783;52.448;4.638;2024-02-23T09:56:38;7.00;99.90
17331;DHT22;8783;52.448;4.638;2024-02-23T09:59:04;7.00;99.90
17331;DHT22;8783;52.448;4.638;2024-02-23T10:01:33;7.00;99.90
17331;DHT22;8783;52.448;4.638;2024-02-23T10:04:01;7.10;99.90
17331;DHT22;8783;52.448;4.638;2024-02-23T10:06:27;7.10;99.90
17331;DHT22;8783;52.448;4.638;2024-02-23T10:08:54;7.10;99.90
17331;DHT22;8783;52.448;4.638;2024-02-23T10:11:23;7.10;99.90
17331;DHT22;8783;52.448;4.638;2024-02-23T10:13:50;7.10;99.90
17331;DHT22;8783;52.448;4.638;2024-02-23T10:16:16;7.20;99.90
17331;DHT22;8783;52.448;4.638;2024-02-23T10:18:42;7.20;99.90
17331;DHT22;8783;52.448;4.638;2024-02-23T10:21:12;7.20;99.90
17331;DHT22;8783;52.448;4.638;2024-02-23T10:23:40;7.20;99.90
17331;DHT22;8783;52.448;4.638;2024-02-23T10:26:07;7.30;99.90
17331;DHT22;8783;52.448;4.638;2024-02-23T10:28:35;7.30;99.90
17331;DHT22;8783;52.448;4.638;2024-02-23T10:31:05;7.30;99.90
17331;DHT22;8783;52.448;4.638;2024-02-23T10:33:31;7.30;99.90
17331;DHT22;8783;52.448;4.638;2024-02-23T10:35:57;7.30;99.90
17331;DHT22;8783;52.448;4.638;2024-02-23T10:38:29;7.40;99.90
17331;DHT22;8783;52.448;4.638;2024-02-23T10:41:02;7.40;99.90
17331;DHT22;8783;52.448;4.638;2024-02-23T10:43:33;7.40;99.90
17331;DHT22;8783;52.448;4.638;2024-02-23T10:46:01;7.40;99.90
17331;DHT22;8783;52.448;4.638;2024-02-23T10:48:28;7.50;99.90
17331;DHT22;8783;52.448;4.638;2024-02-23T10:50:55;7.50;99.90
17331;DHT22;8783;52.448;4.638;2024-02-23T10:53:23;7.50;99.90
17331;DHT22;8783;52.448;4.638;2024-02-23T10:55:55;7.60;99.90
17331;DHT22;8783;52.448;4.638;2024-02-23T10:58:22;7.50;99.90
17331;DHT22;8783;52.448;4.638;2024-02-23T11:00:48;7.60;99.90
17331;DHT22;8783;52.448;4.638;2024-02-23T11:03:15;7.60;99.90
17331;DHT22;8783;52.448;4.638;2024-02-23T11:05:47;7.60;99.90
17331;DHT22;8783;52.448;4.638;2024-02-23T11:08:17;7.60;99.90
17331;DHT22;8783;52.448;4.638;2024-02-23T11:10:50;7.60;99.90
17331;DHT22;8783;52.448;4.638;2024-02-23T11:13:29;7.60;99.90
17331;DHT22;8783;52.448;4.638;2024-02-23T11:16:01;7.70;99.90
17331;DHT22;8783;52.448;4.638;2024-02-23T11:18:29;7.70;99.90
17331;DHT22;8783;52.448;4.638;2024-02-23T11:20:59;7.70;99.90
17331;DHT22;8783;52.448;4.638;2024-02-23T11:23:25;7.70;99.90
17331;DHT22;8783;52.448;4.638;2024-02-23T11:28:29;7.80;99.90
17331;DHT22;8783;52.448;4.638;2024-02-23T11:30:55;7.80;99.90
17331;DHT22;8783;52.448;4.638;2024-02-23T11:33:27;7.80;99.90
17331;DHT22;8783;52.448;4.638;2024-02-23T11:36:09;7.80;99.90
17331;DHT22;8783;52.448;4.638;2024-02-23T11:38:35;7.90;99.90
17331;DHT22;8783;52.448;4.638;2024-02-23T11:41:02;7.90;99.90
17331;DHT22;8783;52.448;4.638;2024-02-23T11:43:28;7.90;99.90
17331;DHT22;8783;52.448;4.638;2024-02-23T11:45:54;7.90;99.90
17331;DHT22;8783;52.448;4.638;2024-02-23T11:48:20;8.00;99.90
17331;DHT22;8783;52.448;4.638;2024-02-23T11:50:51;8.00;99.90
17331;DHT22;8783;52.448;4.638;2024-02-23T11:53:17;8.10;99.90
17331;DHT22;8783;52.448;4.638;2024-02-23T11:55:44;8.10;99.90
17331;DHT22;8783;52.448;4.638;2024-02-23T11:58:10;8.10;99.90
17331;DHT22;8783;52.448;4.638;2024-02-23T12:00:39;8.10;99.90
17331;DHT22;8783;52.448;4.638;2024-02-23T12:03:05;8.00;99.90
17331;DHT22;8783;52.448;4.638;2024-02-23T12:05:31;8.10;99.90
17331;DHT22;8783;52.448;4.638;2024-02-23T12:07:57;8.10;99.90
17331;DHT22;8783;52.448;4.638;2024-02-23T12:10:23;8.10;99.90
17331;DHT22;8783;52.448;4.638;2024-02-23T12:12:51;8.20;99.90
17331;DHT22;8783;52.448;4.638;2024-02-23T12:15:16;8.20;99.90
17331;DHT22;8783;52.448;4.638;2024-02-23T12:17:49;8.20;99.90
17331;DHT22;8783;52.448;4.638;2024-02-23T12:20:15;8.20;99.90
17331;DHT22;8783;52.448;4.638;2024-02-23T12:22:41;8.20;99.90
17331;DHT22;8783;52.448;4.638;2024-02-23T12:25:17;8.20;99.90
17331;DHT22;8783;52.448;4.638;2024-02-23T12:27:46;8.20;99.90
17331;DHT22;8783;52.448;4.638;2024-02-23T12:30:18;8.20;99.90
17331;DHT22;8783;52.448;4.638;2024-02-23T12:32:44;8.20;99.90
17331;DHT22;8783;52.448;4.638;2024-02-23T12:35:12;8.30;99.90
17331;DHT22;8783;52.448;4.638;2024-02-23T12:37:38;8.30;99.90
17331;DHT22;8783;52.448;4.638;2024-02-23T12:40:05;8.30;99.90
17331;DHT22;8783;52.448;4.638;2024-02-23T12:42:34;8.30;99.90
17331;DHT22;8783;52.448;4.638;2024-02-23T12:45:00;8.30;99.90
17331;DHT22;8783;52.448;4.638;2024-02-23T12:47:26;8.20;99.90
17331;DHT22;8783;52.448;4.638;2024-02-23T12:49:52;8.30;99.90
17331;DHT22;8783;52.448;4.638;2024-02-23T12:52:17;8.20;99.90
17331;DHT22;8783;52.448;4.638;2024-02-23T12:54:43;8.30;99.90
17331;DHT22;8783;52.448;4.638;2024-02-23T12:57:11;8.30;99.90
17331;DHT22;8783;52.448;4.638;2024-02-23T12:59:37;8.30;99.90
17331;DHT22;8783;52.448;4.638;2024-02-23T13:02:10;8.30;99.90
17331;DHT22;8783;52.448;4.638;2024-02-23T13:04:37;8.30;99.90
17331;DHT22;8783;52.448;4.638;2024-02-23T13:07:02;8.30;99.90
17331;DHT22;8783;52.448;4.638;2024-02-23T13:09:28;8.30;99.90
17331;DHT22;8783;52.448;4.638;2024-02-23T13:11:53;8.30;99.90
17331;DHT22;8783;52.448;4.638;2024-02-23T13:14:19;8.40;99.90
17331;DHT22;8783;52.448;4.638;2024-02-23T13:16:45;8.40;99.90
17331;DHT22;8783;52.448;4.638;2024-02-23T13:19:11;8.40;99.90
17331;DHT22;8783;52.448;4.638;2024-02-23T13:21:36;8.40;99.90
17331;DHT22;8783;52.448;4.638;2024-02-23T13:24:02;8.40;99.90
17331;DHT22;8783;52.448;4.638;2024-02-23T13:26:28;8.40;99.90
17331;DHT22;8783;52.448;4.638;2024-02-23T13:28:53;8.40;99.90
17331;DHT22;8783;52.448;4.638;2024-02-23T13:31:30;8.40;99.90
17331;DHT22;8783;52.448;4.638;2024-02-23T13:33:56;8.50;99.90
17331;DHT22;8783;52.448;4.638;2024-02-23T13:36:24;8.50;99.90
17331;DHT22;8783;52.448;4.638;2024-02-23T13:38:50;8.50;99.90
17331;DHT22;8783;52.448;4.638;2024-02-23T13:41:17;8.50;99.90
17331;DHT22;8783;52.448;4.638;2024-02-23T13:43:43;8.50;99.90
17331;DHT22;8783;52.448;4.638;2024-02-23T13:46:08;8.50;99.90
17331;DHT22;8783;52.448;4.638;2024-02-23T13:48:38;8.50;99.90
17331;DHT22;8783;52.448;4.638;2024-02-23T13:51:04;8.50;99.90
17331;DHT22;8783;52.448;4.638;2024-02-23T13:53:32;8.60;99.90
17331;DHT22;8783;52.448;4.638;2024-02-23T13:55:59;8.60;99.90
17331;DHT22;8783;52.448;4.638;2024-02-23T13:58:26;8.70;99.90
17331;DHT22;8783;52.448;4.638;2024-02-23T14:00:53;8.80;99.90
17331;DHT22;8783;52.448;4.638;2024-02-23T14:03:19;8.80;99.90
17331;DHT22;8783;52.448;4.638;2024-02-23T14:05:45;8.80;99.90
17331;DHT22;8783;52.448;4.638;2024-02-23T14:08:11;8.70;99.90
17331;DHT22;8783;52.448;4.638;2024-02-23T14:10:37;8.70;99.90
17331;DHT22;8783;52.448;4.638;2024-02-23T14:13:03;8.70;99.90
17331;DHT22;8783;52.448;4.638;2024-02-23T14:15:28;8.70;99.90
17331;DHT22;8783;52.448;4.638;2024-02-23T14:17:54;8.70;99.90
17331;DHT22;8783;52.448;4.638;2024-02-23T14:20:20;8.70;99.90
17331;DHT22;8783;52.448;4.638;2024-02-23T14:22:45;8.60;99.90
17331;DHT22;8783;52.448;4.638;2024-02-23T14:25:11;8.70;99.90
17331;DHT22;8783;52.448;4.638;2024-02-23T14:27:37;8.60;99.90
17331;DHT22;8783;52.448;4.638;2024-02-23T14:30:03;8.60;99.90
17331;DHT22;8783;52.448;4.638;2024-02-23T14:32:29;8.60;99.90
17331;DHT22;8783;52.448;4.638;2024-02-23T14:34:56;8.60;99.90
17331;DHT22;8783;52.448;4.638;2024-02-23T14:37:22;8.60;99.90
17331;DHT22;8783;52.448;4.638;2024-02-23T14:39:48;8.60;99.90
17331;DHT22;8783;52.448;4.638;2024-02-23T14:42:14;8.60;99.90
17331;DHT22;8783;52.448;4.638;2024-02-23T14:44:40;8.60;99.90
17331;DHT22;8783;52.448;4.638;2024-02-23T14:47:05;8.60;99.90
17331;DHT22;8783;52.448;4.638;2024-02-23T14:49:32;8.60;99.90
17331;DHT22;8783;52.448;4.638;2024-02-23T14:51:58;8.60;99.90
17331;DHT22;8783;52.448;4.638;2024-02-23T14:54:24;8.60;99.90
17331;DHT22;8783;52.448;4.638;2024-02-23T14:56:49;8.60;99.90
17331;DHT22;8783;52.448;4.638;2024-02-23T14:59:15;8.60;99.90
17331;DHT22;8783;52.448;4.638;2024-02-23T15:01:40;8.60;99.90
17331;DHT22;8783;52.448;4.638;2024-02-23T15:04:07;8.60;99.90
17331;DHT22;8783;52.448;4.638;2024-02-23T15:06:33;8.60;99.90
17331;DHT22;8783;52.448;4.638;2024-02-23T15:08:59;8.60;99.90
17331;DHT22;8783;52.448;4.638;2024-02-23T15:11:25;8.60;99.90
17331;DHT22;8783;52.448;4.638;2024-02-23T15:13:50;8.60;99.90
17331;DHT22;8783;52.448;4.638;2024-02-23T15:16:17;8.50;99.90
17331;DHT22;8783;52.448;4.638;2024-02-23T15:18:43;8.50;99.90
17331;DHT22;8783;52.448;4.638;2024-02-23T15:21:08;8.50;99.90
17331;DHT22;8783;52.448;4.638;2024-02-23T15:23:34;8.60;99.90
17331;DHT22;8783;52.448;4.638;2024-02-23T15:26:00;8.50;99.90
17331;DHT22;8783;52.448;4.638;2024-02-23T15:28:25;8.50;99.90
17331;DHT22;8783;52.448;4.638;2024-02-23T15:30:51;8.50;99.90
17331;DHT22;8783;52.448;4.638;2024-02-23T15:33:21;8.50;99.90
17331;DHT22;8783;52.448;4.638;2024-02-23T15:35:46;8.50;99.90
17331;DHT22;8783;52.448;4.638;2024-02-23T15:38:12;8.50;99.90
17331;DHT22;8783;52.448;4.638;2024-02-23T15:40:37;8.50;99.90
17331;DHT22;8783;52.448;4.638;2024-02-23T15:43:03;8.50;99.90
17331;DHT22;8783;52.448;4.638;2024-02-23T15:45:29;8.50;99.90
17331;DHT22;8783;52.448;4.638;2024-02-23T15:47:55;8.50;99.90
17331;DHT22;8783;52.448;4.638;2024-02-23T15:50:20;8.50;99.90
17331;DHT22;8783;52.448;4.638;2024-02-23T15:52:47;8.50;99.90
17331;DHT22;8783;52.448;4.638;2024-02-23T15:55:13;8.50;99.90
17331;DHT22;8783;52.448;4.638;2024-02-23T15:57:39;8.50;99.90
17331;DHT22;8783;52.448;4.638;2024-02-23T16:00:06;8.50;99.90